createdAt,value
2022-08-14T00:03:50.696Z,24.5
2022-08-14T00:09:29.635Z,24.4
2022-08-14T00:16:40.618Z,24.4
2022-08-14T00:22:22.034Z,24.4
2022-08-14T00:28:52.928Z,24.3
2022-08-14T00:34:35.697Z,24.3
2022-08-14T00:40:27.544Z,24.2
2022-08-14T00:46:23.369Z,24.2
2022-08-14T00:52:09.798Z,24.2
2022-08-14T00:57:53.786Z,24.2
2022-08-14T01:03:29.266Z,24.1
2022-08-14T01:09:06.257Z,24.1
2022-08-14T01:14:51.249Z,24.1
2022-08-14T01:20:27.153Z,24
2022-08-14T01:26:05.260Z,24
2022-08-14T01:32:13.907Z,24
2022-08-14T01:37:59.131Z,23.9
2022-08-14T01:43:57.130Z,23.9
2022-08-14T01:49:33.539Z,23.9
2022-08-14T01:55:37.224Z,23.9
2022-08-14T02:01:15.089Z,23.8
2022-08-14T02:06:54.134Z,23.8
2022-08-14T02:12:31.440Z,23.8
2022-08-14T02:18:06.695Z,23.8
2022-08-14T02:23:42.160Z,23.8
2022-08-14T02:29:17.134Z,23.7
2022-08-14T02:34:52.105Z,23.7
2022-08-14T02:40:31.974Z,23.7
2022-08-14T02:46:12.653Z,23.7
2022-08-14T02:52:27.138Z,23.6
2022-08-14T02:58:38.856Z,23.6
2022-08-14T03:04:25.190Z,23.6
2022-08-14T03:10:25.401Z,23.6
2022-08-14T03:16:20.228Z,23.6
2022-08-14T03:22:09.270Z,23.5
2022-08-14T03:27:58.151Z,23.5
2022-08-14T03:33:38.496Z,23.5
2022-08-14T03:39:21.412Z,23.5
2022-08-14T03:45:34.571Z,23.5
2022-08-14T03:51:21.178Z,23.5
2022-08-14T03:56:57.799Z,23.5
2022-08-14T04:02:37.324Z,23.5
2022-08-14T04:08:29.654Z,23.4
2022-08-14T04:14:07.933Z,23.4
2022-08-14T04:19:51.321Z,23.4
2022-08-14T04:25:26.638Z,23.4
2022-08-14T04:31:02.005Z,23.4
2022-08-14T04:36:38.982Z,23.4
2022-08-14T04:42:47.727Z,23.4
2022-08-14T04:48:31.662Z,23.3
2022-08-14T04:54:35.773Z,23.3
2022-08-14T05:00:16.079Z,23.3
2022-08-14T05:05:54.494Z,23.3
2022-08-14T05:11:32.640Z,23.3
2022-08-14T05:17:12.222Z,23.3
2022-08-14T05:22:47.246Z,23.3
2022-08-14T05:28:35.466Z,23.2
2022-08-14T05:34:11.696Z,23.2
2022-08-14T05:39:47.179Z,22.5
2022-08-14T05:45:24.448Z,22.3
2022-08-14T05:51:05.431Z,22.2
2022-08-14T05:56:44.646Z,22.2
2022-08-14T06:02:19.533Z,22.2
2022-08-14T06:07:59.168Z,22.1
2022-08-14T06:13:44.852Z,22
2022-08-14T06:19:26.488Z,22
2022-08-14T06:25:05.628Z,21.9
2022-08-14T06:30:57.619Z,21.8
2022-08-14T06:36:32.840Z,21.9
2022-08-14T06:42:32.334Z,21.9
2022-08-14T06:48:21.923Z,22
2022-08-14T06:53:56.727Z,22.1
2022-08-14T06:59:33.780Z,22.1
2022-08-14T07:05:10.219Z,22.2
2022-08-14T07:10:58.258Z,22.3
2022-08-14T07:16:37.118Z,22.5
2022-08-14T07:22:17.509Z,22.3
2022-08-14T07:27:56.514Z,22.4
2022-08-14T07:33:35.001Z,22.6
2022-08-14T07:39:15.670Z,23.2
2022-08-14T07:45:23.649Z,23.6
2022-08-14T07:50:58.379Z,23.1
2022-08-14T07:56:47.091Z,23
2022-08-14T08:02:49.588Z,23
2022-08-14T08:08:35.541Z,23.1
2022-08-14T08:14:17.085Z,23
2022-08-14T08:19:52.749Z,23
2022-08-14T08:25:28.668Z,23
2022-08-14T08:31:06.613Z,23.1
2022-08-14T08:36:46.531Z,23.1
2022-08-14T08:42:45.754Z,23.2
2022-08-14T08:48:35.515Z,23.3
2022-08-14T08:54:30.979Z,23.4
2022-08-14T09:00:09.901Z,23.4
2022-08-14T09:06:03.467Z,23.4
2022-08-14T09:12:46.721Z,23.5
2022-08-14T09:18:33.638Z,23.7
2022-08-14T09:24:27.541Z,23.9
2022-08-14T09:30:31.875Z,23.9
2022-08-14T09:36:08.838Z,23.9
2022-08-14T09:42:18.021Z,24
2022-08-14T09:48:07.237Z,24.1
2022-08-14T09:54:13.347Z,24.1
2022-08-14T10:00:02.741Z,24.2
2022-08-14T10:06:08.570Z,24.2
2022-08-14T10:11:45.892Z,24.1
2022-08-14T10:17:54.473Z,24.3
2022-08-14T10:23:30.206Z,24.4
2022-08-14T10:29:18.044Z,24.4
2022-08-14T10:35:01.808Z,24.3
2022-08-14T10:40:44.436Z,24.2
2022-08-14T10:47:37.806Z,24.3
2022-08-14T10:54:35.591Z,24.4
2022-08-14T11:00:29.632Z,24.5
2022-08-14T11:06:21.360Z,24.5
2022-08-14T11:12:33.455Z,24.6
2022-08-14T11:18:20.204Z,24.8
2022-08-14T11:24:50.368Z,24.8
2022-08-14T11:30:49.500Z,24.7
2022-08-14T11:36:34.970Z,24.7
2022-08-14T11:43:49.628Z,24.8
2022-08-14T11:49:34.069Z,24.8
2022-08-14T11:55:10.932Z,24.9
2022-08-14T12:00:48.167Z,24.9
2022-08-14T12:06:28.390Z,24.8
2022-08-14T12:12:16.133Z,24.7
2022-08-14T12:18:11.551Z,24.7
2022-08-14T12:23:55.280Z,24.7
2022-08-14T12:29:31.799Z,24.6
2022-08-14T12:35:10.646Z,24.6
2022-08-14T12:40:51.699Z,24.6
2022-08-14T12:46:32.321Z,24.6
2022-08-14T12:52:17.076Z,24.6
2022-08-14T12:58:53.910Z,24.6
2022-08-14T13:04:28.745Z,24.7
2022-08-14T13:10:12.976Z,24.7
2022-08-14T13:16:37.855Z,24.8
2022-08-14T13:22:19.667Z,24.8
2022-08-14T13:28:30.139Z,25
2022-08-14T13:34:40.436Z,25.1
2022-08-14T13:40:15.284Z,25.1
2022-08-14T13:46:00.125Z,25.1
2022-08-14T13:51:38.159Z,25
2022-08-14T13:57:18.236Z,25
2022-08-14T14:03:06.041Z,25
2022-08-14T14:08:47.121Z,24.9
2022-08-14T14:14:29.617Z,24.9
2022-08-14T14:20:34.826Z,24.9
2022-08-14T14:26:13.710Z,24.8
2022-08-14T14:31:59.924Z,24.8
2022-08-14T14:37:35.789Z,24.8
2022-08-14T14:43:32.346Z,24.8
2022-08-14T14:49:07.854Z,24.9
2022-08-14T14:54:49.676Z,24.9
2022-08-14T15:00:29.255Z,25
2022-08-14T15:06:07.350Z,25
2022-08-14T15:11:43.562Z,25.1
2022-08-14T15:17:21.972Z,25.1
2022-08-14T15:22:58.146Z,25.1
2022-08-14T15:28:38.606Z,25.2
2022-08-14T15:34:40.813Z,25.2
2022-08-14T15:40:28.503Z,25.2
2022-08-14T15:46:25.178Z,25.2
2022-08-14T15:52:32.281Z,25.3
2022-08-14T15:58:14.442Z,25.3
2022-08-14T16:03:55.731Z,25.2
2022-08-14T16:09:33.024Z,25.2
2022-08-14T16:15:10.611Z,25.2
2022-08-14T16:20:47.699Z,25.4
2022-08-14T16:26:29.333Z,25.7
2022-08-14T16:32:32.350Z,26.3
2022-08-14T16:38:45.123Z,26.7
2022-08-14T16:44:58.972Z,26.8
2022-08-14T16:50:40.232Z,26.9
2022-08-14T16:56:23.330Z,26.6
2022-08-14T17:02:11.099Z,26.5
2022-08-14T17:07:55.505Z,26.5
2022-08-14T17:13:47.788Z,26.3
2022-08-14T17:19:36.879Z,26.2
2022-08-14T17:25:17.139Z,26.1
2022-08-14T17:31:08.446Z,25.9
2022-08-14T17:36:44.412Z,25.8
2022-08-14T17:42:51.233Z,25.7
2022-08-14T17:48:39.548Z,25.6
2022-08-14T17:54:59.214Z,25.6
2022-08-14T18:00:37.623Z,25.4
2022-08-14T18:06:38.907Z,25.3
2022-08-14T18:14:31.725Z,25.2
2022-08-14T18:21:25.324Z,25.1
2022-08-14T18:27:32.924Z,24.9
2022-08-14T18:33:08.434Z,24.9
2022-08-14T18:38:46.282Z,24.8
2022-08-14T18:44:57.665Z,24.8
2022-08-14T18:50:34.674Z,24.7
2022-08-14T18:56:10.164Z,24.6
2022-08-14T19:01:57.244Z,24.5
2022-08-14T19:07:34.863Z,24.4
2022-08-14T19:13:11.663Z,24.3
2022-08-14T19:19:00.952Z,24.2
2022-08-14T19:24:36.266Z,24.2
2022-08-14T19:30:25.919Z,24.1
2022-08-14T19:36:07.136Z,24.1
2022-08-14T19:43:09.138Z,24.1
2022-08-14T19:48:42.724Z,24
2022-08-14T19:54:32.266Z,23.9
2022-08-14T20:00:20.619Z,23.8
2022-08-14T20:06:27.807Z,23.7
2022-08-14T20:12:05.010Z,23.7
2022-08-14T20:18:48.943Z,23.6
2022-08-14T20:24:30.664Z,23.6
2022-08-14T20:30:29.401Z,23.5
2022-08-14T20:36:13.810Z,23.4
2022-08-14T20:42:03.387Z,23.3
2022-08-14T20:47:48.052Z,23.3
2022-08-14T20:53:28.518Z,23.2
2022-08-14T20:59:06.745Z,23.2
2022-08-14T21:04:52.401Z,23.2
2022-08-14T21:10:34.427Z,23.1
2022-08-14T21:16:30.862Z,23.1
2022-08-14T21:22:34.484Z,23
2022-08-14T21:28:29.465Z,22.9
2022-08-14T21:34:27.059Z,22.9
2022-08-14T21:40:18.567Z,22.8
2022-08-14T21:46:25.327Z,22.8
2022-08-14T21:52:50.057Z,22.7
2022-08-14T21:58:46.439Z,22.7
2022-08-14T22:04:41.205Z,22.7
2022-08-14T22:10:22.856Z,22.6
2022-08-14T22:16:02.202Z,22.6
2022-08-14T22:21:37.626Z,22.6
2022-08-14T22:27:21.172Z,22.6
2022-08-14T22:33:00.120Z,22.6
2022-08-14T22:38:39.086Z,22.6
2022-08-14T22:44:49.534Z,22.6
2022-08-14T22:50:29.895Z,22.5
2022-08-14T22:56:19.993Z,22.5
2022-08-14T23:02:05.470Z,22.5
2022-08-14T23:08:56.058Z,22.5
2022-08-14T23:16:06.428Z,22.5
2022-08-14T23:21:46.474Z,22.5
2022-08-14T23:27:28.390Z,22.5
2022-08-14T23:33:42.158Z,22.4
2022-08-14T23:39:29.855Z,22.4
2022-08-14T23:45:14.646Z,22.4
2022-08-14T23:51:13.498Z,22.4
2022-08-14T23:56:50.379Z,22.4
